createdAt,value
2019-05-19T00:02:03.079Z,8.38
2019-05-19T00:04:32.215Z,6.35
2019-05-19T00:07:01.365Z,8.80
2019-05-19T00:09:30.547Z,6.42
2019-05-19T00:11:59.793Z,6.15
2019-05-19T00:14:28.913Z,5.75
2019-05-19T00:16:58.180Z,6.87
2019-05-19T00:19:27.378Z,5.70
2019-05-19T00:21:56.483Z,6.10
2019-05-19T00:24:25.730Z,6.42
2019-05-19T00:26:54.888Z,7.00
2019-05-19T00:29:24.181Z,7.00
2019-05-19T00:31:53.466Z,7.05
2019-05-19T00:34:22.706Z,6.87
2019-05-19T00:36:51.934Z,7.97
2019-05-19T00:39:21.074Z,6.90
2019-05-19T00:41:50.197Z,7.22
2019-05-19T00:44:19.490Z,6.87
2019-05-19T00:46:48.498Z,8.60
2019-05-19T00:49:17.811Z,8.60
2019-05-19T00:51:46.872Z,7.83
2019-05-19T00:54:15.966Z,8.80
2019-05-19T00:56:45.113Z,8.45
2019-05-19T00:59:14.163Z,8.70
2019-05-19T01:01:43.402Z,8.95
2019-05-19T01:04:12.642Z,8.73
2019-05-19T01:06:41.758Z,9.73
2019-05-19T01:09:10.766Z,8.98
2019-05-19T01:11:39.896Z,10.08
2019-05-19T01:14:09.189Z,11.08
2019-05-19T01:16:38.514Z,9.88
2019-05-19T01:19:07.821Z,9.35
2019-05-19T01:21:36.930Z,10.15
2019-05-19T01:24:06.164Z,10.40
2019-05-19T01:26:35.422Z,9.88
2019-05-19T01:29:04.627Z,10.50
2019-05-19T01:31:34.132Z,10.75
2019-05-19T01:34:03.254Z,11.18
2019-05-19T01:36:32.269Z,10.50
2019-05-19T01:39:01.405Z,10.65
2019-05-19T01:41:30.618Z,12.10
2019-05-19T01:43:59.792Z,11.78
2019-05-19T01:46:28.818Z,11.38
2019-05-19T01:48:57.871Z,12.68
2019-05-19T01:51:27.119Z,13.83
2019-05-19T01:53:56.344Z,12.30
2019-05-19T01:56:25.521Z,13.60
2019-05-19T01:58:54.594Z,14.28
2019-05-19T02:01:23.674Z,13.22
2019-05-19T02:03:52.876Z,13.03
2019-05-19T02:06:22.033Z,12.88
2019-05-19T02:08:51.058Z,13.75
2019-05-19T02:11:20.262Z,13.35
2019-05-19T02:13:49.320Z,15.40
2019-05-19T02:16:18.416Z,13.13
2019-05-19T02:18:47.630Z,14.85
2019-05-19T02:21:16.796Z,13.32
2019-05-19T02:23:45.903Z,14.75
2019-05-19T02:26:14.828Z,15.13
2019-05-19T02:28:44.130Z,13.62
2019-05-19T02:31:13.495Z,13.25
2019-05-19T02:33:42.566Z,14.10
2019-05-19T02:36:11.614Z,14.60
2019-05-19T02:38:40.734Z,16.52
2019-05-19T02:41:09.664Z,13.08
2019-05-19T02:43:38.652Z,15.35
2019-05-19T02:46:07.939Z,15.45
2019-05-19T02:48:37.178Z,14.45
2019-05-19T02:51:06.294Z,15.10
2019-05-19T02:53:35.448Z,15.03
2019-05-19T02:56:04.709Z,15.48
2019-05-19T02:58:33.867Z,15.00
2019-05-19T03:01:03.036Z,16.23
2019-05-19T03:03:32.216Z,16.40
2019-05-19T03:06:01.288Z,15.20
2019-05-19T03:08:30.520Z,17.55
2019-05-19T03:10:59.697Z,16.85
2019-05-19T03:13:28.834Z,16.93
2019-05-19T03:15:57.975Z,18.12
2019-05-19T03:18:27.014Z,17.95
2019-05-19T03:21:09.986Z,16.02
2019-05-19T03:23:27.039Z,17.62
2019-05-19T03:25:56.182Z,18.67
2019-05-19T03:28:25.430Z,16.35
2019-05-19T03:31:02.243Z,15.75
2019-05-19T03:33:32.972Z,16.07
2019-05-19T03:36:02.041Z,18.50
2019-05-19T03:38:31.159Z,17.95
2019-05-19T03:41:00.150Z,14.98
2019-05-19T03:43:29.306Z,15.75
2019-05-19T03:45:58.418Z,16.32
2019-05-19T03:48:27.605Z,18.70
2019-05-19T03:50:56.758Z,15.63
2019-05-19T03:53:25.913Z,16.32
2019-05-19T03:55:55.266Z,19.67
2019-05-19T03:58:24.431Z,16.12
2019-05-19T04:00:53.620Z,15.63
2019-05-19T04:03:22.646Z,17.80
2019-05-19T04:05:51.640Z,18.98
2019-05-19T04:08:20.889Z,22.05
2019-05-19T04:10:50.147Z,17.32
2019-05-19T04:13:19.268Z,17.02
2019-05-19T04:15:48.456Z,17.32
2019-05-19T04:18:17.634Z,16.62
2019-05-19T04:20:46.871Z,17.27
2019-05-19T04:23:15.963Z,19.25
2019-05-19T04:25:45.114Z,18.07
2019-05-19T04:28:14.161Z,19.57
2019-05-19T04:30:43.314Z,17.10
2019-05-19T04:33:12.410Z,16.17
2019-05-19T04:35:41.613Z,16.50
2019-05-19T04:38:10.768Z,17.87
2019-05-19T04:40:40.012Z,18.57
2019-05-19T04:43:09.488Z,21.70
2019-05-19T04:45:38.540Z,19.15
2019-05-19T04:48:09.610Z,19.45
2019-05-19T04:50:38.381Z,18.57
2019-05-19T04:53:07.373Z,19.87
2019-05-19T04:55:36.655Z,22.80
2019-05-19T04:58:05.767Z,20.92
2019-05-19T05:00:34.774Z,19.15
2019-05-19T05:03:04.011Z,18.90
2019-05-19T05:05:33.311Z,18.02
2019-05-19T05:08:02.492Z,18.02
2019-05-19T05:10:31.641Z,20.25
2019-05-19T05:13:01.094Z,19.55
2019-05-19T05:15:30.460Z,19.48
2019-05-19T05:17:59.230Z,19.52
2019-05-19T05:20:28.333Z,19.07
2019-05-19T05:22:57.623Z,19.17
2019-05-19T05:25:26.515Z,20.15
2019-05-19T05:27:55.765Z,18.75
2019-05-19T05:30:25.022Z,17.32
2019-05-19T05:32:54.225Z,18.05
2019-05-19T05:35:23.299Z,18.73
2019-05-19T05:37:52.365Z,19.40
2019-05-19T05:40:21.169Z,19.85
2019-05-19T05:42:50.332Z,25.23
2019-05-19T05:45:19.445Z,26.82
2019-05-19T05:47:48.508Z,20.30
2019-05-19T05:50:17.553Z,19.75
2019-05-19T05:52:46.810Z,21.77
2019-05-19T05:55:16.021Z,19.85
2019-05-19T05:57:45.311Z,19.10
2019-05-19T06:00:15.944Z,21.17
2019-05-19T06:02:45.422Z,18.90
2019-05-19T06:05:14.551Z,20.88
2019-05-19T06:07:43.568Z,19.62
2019-05-19T06:10:12.503Z,19.02
2019-05-19T06:12:41.499Z,20.10
2019-05-19T06:15:10.683Z,19.62
2019-05-19T06:17:39.699Z,18.67
2019-05-19T06:20:09.296Z,18.90
2019-05-19T06:22:54.420Z,19.98
2019-05-19T06:25:09.536Z,18.15
2019-05-19T06:27:38.728Z,17.85
2019-05-19T06:30:08.874Z,17.90
2019-05-19T06:32:57.964Z,16.87
2019-05-19T06:35:27.105Z,17.37
2019-05-19T06:37:56.440Z,16.05
2019-05-19T06:40:25.471Z,19.70
2019-05-19T06:42:54.600Z,17.35
2019-05-19T06:45:23.726Z,17.23
2019-05-19T06:47:52.904Z,18.17
2019-05-19T06:50:22.069Z,17.48
2019-05-19T06:52:51.068Z,16.93
2019-05-19T06:55:20.392Z,15.72
2019-05-19T06:57:49.584Z,16.77
2019-05-19T07:00:19.534Z,17.87
2019-05-19T07:02:48.685Z,17.92
2019-05-19T07:05:17.737Z,17.70
2019-05-19T07:07:46.864Z,19.05
2019-05-19T07:10:15.993Z,16.62
2019-05-19T07:12:45.196Z,16.50
2019-05-19T07:15:14.440Z,17.62
2019-05-19T07:17:44.046Z,17.70
2019-05-19T07:20:13.122Z,16.80
2019-05-19T07:22:42.306Z,16.70
2019-05-19T07:25:11.580Z,16.15
2019-05-19T07:27:40.843Z,15.80
2019-05-19T07:30:09.992Z,18.35
2019-05-19T07:32:39.176Z,17.50
2019-05-19T07:35:08.544Z,16.27
2019-05-19T07:37:37.753Z,17.52
2019-05-19T07:40:06.744Z,17.37
2019-05-19T07:42:35.871Z,17.67
2019-05-19T07:45:05.711Z,16.07
2019-05-19T07:47:34.750Z,15.55
2019-05-19T07:50:04.477Z,15.83
2019-05-19T07:52:33.719Z,15.15
2019-05-19T07:55:03.083Z,14.83
2019-05-19T07:57:32.256Z,15.03
2019-05-19T08:00:01.412Z,14.18
2019-05-19T08:02:30.846Z,14.03
2019-05-19T08:05:00.244Z,12.37
2019-05-19T08:07:29.409Z,12.50
2019-05-19T08:09:58.674Z,12.98
2019-05-19T08:12:27.862Z,13.70
2019-05-19T08:14:57.095Z,13.20
2019-05-19T08:17:26.193Z,13.03
2019-05-19T08:19:55.299Z,12.58
2019-05-19T08:22:24.572Z,12.63
2019-05-19T08:24:53.627Z,11.18
2019-05-19T08:27:22.844Z,11.65
2019-05-19T08:29:51.776Z,10.75
2019-05-19T08:32:20.823Z,11.20
2019-05-19T08:34:49.951Z,10.03
2019-05-19T08:37:19.118Z,10.45
2019-05-19T08:39:48.047Z,9.90
2019-05-19T08:42:17.276Z,9.70
2019-05-19T08:44:47.358Z,12.18
2019-05-19T08:47:16.627Z,10.25
2019-05-19T08:49:45.559Z,9.63
2019-05-19T08:52:14.820Z,10.63
2019-05-19T08:54:44.056Z,11.83
2019-05-19T08:57:13.346Z,9.98
2019-05-19T08:59:42.530Z,8.75
2019-05-19T09:02:11.815Z,9.83
2019-05-19T09:04:41.176Z,9.30
2019-05-19T09:07:10.223Z,10.23
2019-05-19T09:09:39.326Z,10.90
2019-05-19T09:12:08.499Z,9.73
2019-05-19T09:14:56.873Z,9.03
2019-05-19T09:17:26.227Z,9.08
2019-05-19T09:19:55.444Z,8.95
2019-05-19T09:22:24.671Z,8.33
2019-05-19T09:24:53.733Z,9.03
2019-05-19T09:27:22.760Z,6.58
2019-05-19T09:29:52.019Z,8.53
2019-05-19T09:32:21.239Z,8.05
2019-05-19T09:34:50.194Z,7.60
2019-05-19T09:37:19.329Z,7.53
2019-05-19T09:39:48.431Z,7.47
2019-05-19T09:42:17.471Z,6.12
2019-05-19T09:44:46.597Z,5.20
2019-05-19T09:47:15.632Z,4.92
2019-05-19T09:49:44.639Z,5.45
2019-05-19T09:52:16.949Z,4.80
2019-05-19T09:54:45.770Z,4.47
2019-05-19T09:57:15.257Z,5.87
2019-05-19T09:59:44.339Z,5.03
2019-05-19T10:02:13.596Z,5.55
2019-05-19T10:04:42.786Z,5.78
2019-05-19T10:07:12.060Z,5.20
2019-05-19T10:09:58.664Z,5.75
2019-05-19T10:12:27.907Z,4.72
2019-05-19T10:14:57.115Z,4.50
2019-05-19T10:17:26.867Z,3.75
2019-05-19T10:19:56.124Z,3.98
2019-05-19T10:22:25.320Z,3.67
2019-05-19T10:25:09.871Z,3.15
2019-05-19T10:27:25.039Z,3.77
2019-05-19T10:29:54.196Z,3.85
2019-05-19T10:32:23.447Z,3.62
2019-05-19T10:34:52.521Z,3.83
2019-05-19T10:37:21.950Z,4.05
2019-05-19T10:39:51.079Z,7.17
2019-05-19T10:42:20.206Z,3.50
2019-05-19T10:44:49.310Z,3.67
2019-05-19T10:47:18.473Z,3.80
2019-05-19T10:49:47.555Z,4.60
2019-05-19T10:52:16.678Z,4.17
2019-05-19T10:54:45.793Z,3.98
2019-05-19T10:57:14.769Z,4.15
2019-05-19T10:59:44.080Z,4.05
2019-05-19T11:02:13.252Z,4.40
2019-05-19T11:04:42.452Z,7.58
2019-05-19T11:07:11.382Z,3.72
2019-05-19T11:09:40.475Z,4.05
2019-05-19T11:12:09.926Z,3.95
2019-05-19T11:14:39.142Z,3.52
2019-05-19T11:17:08.313Z,3.75
2019-05-19T11:19:37.648Z,4.17
2019-05-19T11:22:06.936Z,3.35
2019-05-19T11:24:36.099Z,4.58
2019-05-19T11:27:05.759Z,3.42
2019-05-19T11:29:35.045Z,3.00
2019-05-19T11:32:04.130Z,4.50
2019-05-19T11:34:33.326Z,3.62
2019-05-19T11:37:02.362Z,3.40
2019-05-19T11:39:31.599Z,3.00
2019-05-19T11:42:00.670Z,3.98
2019-05-19T11:44:29.886Z,3.17
2019-05-19T11:47:18.268Z,3.60
2019-05-19T11:49:47.398Z,3.70
2019-05-19T11:52:16.648Z,3.20
2019-05-19T11:54:45.761Z,3.47
2019-05-19T11:57:15.011Z,3.95
2019-05-19T11:59:44.176Z,2.95
2019-05-19T12:02:13.399Z,3.02
2019-05-19T12:04:42.639Z,3.15
2019-05-19T12:07:11.889Z,2.80
2019-05-19T12:09:40.908Z,3.20
2019-05-19T12:12:11.068Z,3.40
2019-05-19T12:14:40.471Z,2.90
2019-05-19T12:17:09.727Z,3.52
2019-05-19T12:19:38.812Z,3.50
2019-05-19T12:22:08.224Z,2.92
2019-05-19T12:24:37.402Z,3.55
2019-05-19T12:27:06.569Z,3.75
2019-05-19T12:29:35.618Z,3.00
2019-05-19T12:32:04.835Z,3.50
2019-05-19T12:34:34.166Z,3.05
2019-05-19T12:37:03.452Z,3.05
2019-05-19T12:39:32.692Z,3.20
2019-05-19T12:42:01.807Z,3.85
2019-05-19T12:44:31.562Z,2.90
2019-05-19T12:47:00.721Z,3.33
2019-05-19T12:49:29.920Z,3.37
2019-05-19T12:51:59.093Z,3.45
2019-05-19T12:54:28.330Z,4.33
2019-05-19T12:56:58.057Z,5.08
2019-05-19T12:59:27.278Z,3.50
2019-05-19T13:01:56.337Z,3.22
2019-05-19T13:04:25.354Z,3.10
2019-05-19T13:06:54.692Z,3.62
2019-05-19T13:09:23.921Z,3.02
2019-05-19T13:11:53.278Z,3.22
2019-05-19T13:14:22.426Z,3.12
2019-05-19T13:16:51.490Z,3.98
2019-05-19T13:19:20.703Z,3.90
2019-05-19T13:21:49.747Z,4.00
2019-05-19T13:24:19.093Z,3.70
2019-05-19T13:26:56.611Z,4.00
2019-05-19T13:29:18.860Z,3.17
2019-05-19T13:31:48.049Z,2.98
2019-05-19T13:34:17.498Z,3.45
2019-05-19T13:36:46.608Z,3.27
2019-05-19T13:39:16.532Z,3.12
2019-05-19T13:41:45.616Z,3.12
2019-05-19T13:44:14.748Z,4.17
2019-05-19T13:46:44.026Z,3.55
2019-05-19T13:49:13.536Z,3.55
2019-05-19T13:51:42.696Z,3.45
2019-05-19T13:54:12.027Z,3.05
2019-05-19T13:56:41.527Z,2.45
2019-05-19T13:59:11.076Z,2.98
2019-05-19T14:01:40.654Z,5.30
2019-05-19T14:04:09.843Z,2.37
2019-05-19T14:06:39.926Z,2.83
2019-05-19T14:09:09.309Z,3.08
2019-05-19T14:11:39.497Z,3.22
2019-05-19T14:14:09.531Z,2.35
2019-05-19T14:16:39.285Z,1.87
2019-05-19T14:19:08.872Z,2.70
2019-05-19T14:21:38.190Z,3.08
2019-05-19T14:24:07.899Z,2.17
2019-05-19T14:26:37.426Z,2.47
2019-05-19T14:29:07.191Z,2.08
2019-05-19T14:31:37.434Z,3.27
2019-05-19T14:34:07.516Z,2.83
2019-05-19T14:36:37.191Z,2.00
2019-05-19T14:39:08.155Z,1.57
2019-05-19T14:41:39.346Z,1.92
2019-05-19T14:44:10.879Z,4.70
2019-05-19T14:46:42.040Z,1.98
2019-05-19T14:49:12.810Z,2.05
2019-05-19T14:51:44.185Z,1.70
2019-05-19T14:54:15.923Z,1.70
2019-05-19T14:56:47.257Z,1.85
2019-05-19T14:59:18.406Z,2.90
2019-05-19T15:01:48.954Z,2.15
2019-05-19T15:04:19.560Z,2.00
2019-05-19T15:06:50.810Z,1.67
2019-05-19T15:09:20.983Z,1.80
2019-05-19T15:11:51.654Z,2.00
2019-05-19T15:14:22.746Z,1.57
2019-05-19T15:16:54.964Z,2.02
2019-05-19T15:19:26.929Z,1.67
2019-05-19T15:21:58.429Z,1.60
2019-05-19T15:24:28.849Z,2.17
2019-05-19T15:26:59.741Z,2.98
2019-05-19T15:29:30.179Z,2.00
2019-05-19T15:32:00.566Z,1.92
2019-05-19T15:34:31.136Z,1.75
2019-05-19T15:37:00.805Z,1.80
2019-05-19T15:39:30.209Z,1.77
2019-05-19T15:41:59.345Z,1.80
2019-05-19T15:44:29.316Z,1.70
2019-05-19T15:46:58.802Z,1.45
2019-05-19T15:49:28.290Z,1.50
2019-05-19T15:52:03.227Z,1.77
2019-05-19T15:54:29.426Z,1.95
2019-05-19T15:56:58.721Z,2.50
2019-05-19T15:59:27.974Z,1.45
2019-05-19T16:01:57.258Z,1.52
2019-05-19T16:04:26.866Z,3.67
2019-05-19T16:06:56.767Z,2.67
2019-05-19T16:09:26.160Z,1.87
2019-05-19T16:11:56.701Z,1.80
2019-05-19T16:14:26.966Z,1.70
2019-05-19T16:16:57.176Z,3.27
2019-05-19T16:19:27.075Z,1.50
2019-05-19T16:21:56.609Z,1.82
2019-05-19T16:24:25.764Z,1.40
2019-05-19T16:26:54.903Z,1.55
2019-05-19T16:29:24.009Z,1.40
2019-05-19T16:31:53.337Z,1.47
2019-05-19T16:34:22.633Z,1.32
2019-05-19T16:36:52.530Z,1.40
2019-05-19T16:39:22.038Z,1.30
2019-05-19T16:41:51.520Z,2.05
2019-05-19T16:44:21.078Z,1.75
2019-05-19T16:46:50.869Z,1.45
2019-05-19T16:49:20.357Z,1.32
2019-05-19T16:51:49.836Z,2.55
2019-05-19T16:54:27.545Z,1.40
2019-05-19T16:56:57.985Z,1.55
2019-05-19T16:59:28.063Z,1.40
2019-05-19T17:01:58.396Z,1.52
2019-05-19T17:04:28.704Z,2.17
2019-05-19T17:06:58.624Z,2.17
2019-05-19T17:09:28.717Z,1.75
2019-05-19T17:11:58.596Z,1.77
2019-05-19T17:14:29.249Z,4.03
2019-05-19T17:17:00.480Z,1.50
2019-05-19T17:19:30.761Z,2.85
2019-05-19T17:22:01.568Z,1.82
2019-05-19T17:24:32.539Z,1.75
2019-05-19T17:27:03.625Z,2.62
2019-05-19T17:29:34.171Z,1.50
2019-05-19T17:32:06.280Z,1.82
2019-05-19T17:34:38.684Z,1.20
2019-05-19T17:37:10.020Z,1.50
2019-05-19T17:39:41.507Z,1.40
2019-05-19T17:42:13.834Z,1.82
2019-05-19T17:44:44.046Z,1.92
2019-05-19T17:47:13.784Z,1.57
2019-05-19T17:49:43.224Z,1.95
2019-05-19T17:52:13.281Z,4.90
2019-05-19T17:54:42.662Z,2.98
2019-05-19T17:57:13.267Z,2.30
2019-05-19T17:59:46.498Z,2.35
2019-05-19T18:02:17.003Z,1.50
2019-05-19T18:04:48.609Z,3.02
2019-05-19T18:07:20.721Z,2.02
2019-05-19T18:09:51.484Z,1.72
2019-05-19T18:12:22.894Z,1.30
2019-05-19T18:14:56.442Z,1.87
2019-05-19T18:17:28.042Z,1.80
2019-05-19T18:19:59.274Z,3.02
2019-05-19T18:22:29.900Z,1.60
2019-05-19T18:25:02.038Z,1.75
2019-05-19T18:27:34.352Z,1.95
2019-05-19T18:30:07.611Z,2.22
2019-05-19T18:32:40.072Z,2.07
2019-05-19T18:35:13.474Z,1.92
2019-05-19T18:37:47.231Z,2.17
2019-05-19T18:40:20.253Z,3.47
2019-05-19T18:42:52.989Z,2.58
2019-05-19T18:45:25.827Z,3.30
2019-05-19T18:47:58.126Z,2.40
2019-05-19T18:50:32.676Z,2.77
2019-05-19T18:53:06.878Z,3.22
2019-05-19T18:55:40.409Z,3.67
2019-05-19T18:58:14.111Z,5.07
2019-05-19T19:00:47.988Z,7.83
2019-05-19T19:03:21.449Z,4.67
2019-05-19T19:05:55.651Z,5.62
2019-05-19T19:08:30.139Z,3.60
2019-05-19T19:11:03.858Z,4.83
2019-05-19T19:13:38.319Z,4.55
2019-05-19T19:16:12.414Z,3.10
2019-05-19T19:21:24.857Z,3.87
2019-05-19T19:23:59.469Z,3.85
2019-05-19T19:26:35.366Z,4.42
2019-05-19T19:29:09.354Z,3.98
2019-05-19T19:31:48.503Z,4.95
2019-05-19T19:34:18.885Z,5.47
2019-05-19T19:36:52.686Z,6.67
2019-05-19T19:39:27.378Z,7.10
2019-05-19T19:42:01.178Z,8.43
2019-05-19T19:44:35.037Z,9.30
2019-05-19T19:47:08.465Z,6.65
2019-05-19T19:50:00.371Z,5.90
2019-05-19T19:52:33.110Z,5.87
2019-05-19T19:55:06.794Z,5.37
2019-05-19T19:57:41.873Z,6.10
2019-05-19T20:00:18.672Z,4.60
2019-05-19T20:02:49.996Z,6.08
2019-05-19T20:05:24.401Z,5.45
2019-05-19T20:07:59.026Z,4.70
2019-05-19T20:10:32.514Z,5.83
2019-05-19T20:13:05.753Z,5.83
2019-05-19T20:15:39.345Z,4.63
2019-05-19T20:18:13.223Z,6.85
2019-05-19T20:20:46.890Z,4.62
2019-05-19T20:23:20.610Z,4.15
2019-05-19T20:25:53.917Z,4.12
2019-05-19T20:28:27.047Z,4.53
2019-05-19T20:30:59.856Z,4.12
2019-05-19T20:33:32.235Z,7.83
2019-05-19T20:36:04.082Z,4.75
2019-05-19T20:38:36.114Z,5.65
2019-05-19T20:41:07.273Z,5.53
2019-05-19T20:43:38.882Z,4.58
2019-05-19T20:46:09.915Z,4.72
2019-05-19T20:48:41.037Z,4.87
2019-05-19T20:51:12.506Z,4.20
2019-05-19T20:53:44.391Z,4.45
2019-05-19T20:56:16.694Z,5.08
2019-05-19T20:58:48.712Z,4.67
2019-05-19T21:01:20.443Z,4.62
2019-05-19T21:03:52.797Z,4.60
2019-05-19T21:06:23.062Z,4.62
2019-05-19T21:08:52.591Z,4.87
2019-05-19T21:11:22.133Z,4.10
2019-05-19T21:13:51.596Z,5.03
2019-05-19T21:16:21.684Z,4.65
2019-05-19T21:18:51.408Z,4.78
2019-05-19T21:21:21.479Z,4.05
2019-05-19T21:23:51.081Z,5.00
2019-05-19T21:26:20.859Z,4.17
2019-05-19T21:28:50.009Z,4.35
2019-05-19T21:31:19.294Z,4.20
2019-05-19T21:33:48.575Z,5.60
2019-05-19T21:36:17.711Z,4.78
2019-05-19T21:38:47.722Z,3.60
2019-05-19T21:41:17.172Z,4.83
2019-05-19T21:43:46.302Z,5.72
2019-05-19T21:46:15.618Z,3.98
2019-05-19T21:48:45.079Z,4.28
2019-05-19T21:51:14.404Z,4.78
2019-05-19T21:53:43.496Z,4.15
2019-05-19T21:56:12.774Z,4.30
2019-05-19T21:58:41.992Z,4.08
2019-05-19T22:01:22.683Z,3.67
2019-05-19T22:03:41.850Z,4.50
2019-05-19T22:06:11.255Z,3.85
2019-05-19T22:08:40.488Z,4.03
2019-05-19T22:11:09.618Z,3.95
2019-05-19T22:13:39.065Z,3.98
2019-05-19T22:16:12.999Z,3.67
2019-05-19T22:18:39.027Z,3.80
2019-05-19T22:21:08.232Z,3.95
2019-05-19T22:23:37.447Z,3.70
2019-05-19T22:26:06.641Z,5.08
2019-05-19T22:28:35.747Z,3.72
2019-05-19T22:31:04.919Z,3.67
2019-05-19T22:33:34.059Z,5.15
2019-05-19T22:36:03.283Z,5.20
2019-05-19T22:38:32.487Z,4.25
2019-05-19T22:41:01.681Z,5.08
2019-05-19T22:43:31.079Z,4.90
2019-05-19T22:46:00.388Z,6.28
2019-05-19T22:48:29.497Z,4.22
2019-05-19T22:50:58.671Z,3.90
2019-05-19T22:53:27.731Z,4.25
2019-05-19T22:55:56.938Z,3.90
2019-05-19T22:58:26.045Z,3.70
2019-05-19T23:00:56.202Z,4.70
2019-05-19T23:03:25.585Z,3.80
2019-05-19T23:05:54.734Z,3.83
2019-05-19T23:08:23.936Z,4.00
2019-05-19T23:10:53.023Z,5.12
2019-05-19T23:13:22.011Z,4.83
2019-05-19T23:15:51.364Z,5.35
2019-05-19T23:18:20.551Z,4.80
2019-05-19T23:20:49.771Z,4.35
2019-05-19T23:23:18.903Z,4.30
2019-05-19T23:25:48.094Z,4.42
2019-05-19T23:28:17.326Z,4.53
2019-05-19T23:30:46.479Z,4.33
2019-05-19T23:33:15.735Z,4.85
2019-05-19T23:35:44.987Z,5.37
2019-05-19T23:38:14.040Z,4.45
2019-05-19T23:40:43.023Z,5.85
2019-05-19T23:43:12.233Z,4.85
2019-05-19T23:45:41.476Z,4.35
2019-05-19T23:48:10.730Z,4.45
2019-05-19T23:50:39.938Z,6.80
2019-05-19T23:53:08.943Z,5.35
2019-05-19T23:55:38.200Z,4.72
2019-05-19T23:58:07.267Z,5.08
